sensor_id;sensor_type;location;lat;lon;timestamp;temperature;humidity
22364;DHT22;11349;53.412;-1.328;2023-03-23T00:01:22;15.50;99.90
22364;DHT22;11349;53.412;-1.328;2023-03-23T00:03:51;15.50;99.90
22364;DHT22;11349;53.412;-1.328;2023-03-23T00:06:19;15.20;99.90
22364;DHT22;11349;53.412;-1.328;2023-03-23T00:08:49;14.70;99.90
22364;DHT22;11349;53.412;-1.328;2023-03-23T00:11:23;14.60;99.90
22364;DHT22;11349;53.412;-1.328;2023-03-23T00:13:52;14.80;99.90
22364;DHT22;11349;53.412;-1.328;2023-03-23T00:16:20;14.70;99.90
22364;DHT22;11349;53.412;-1.328;2023-03-23T00:18:47;14.50;99.90
22364;DHT22;11349;53.412;-1.328;2023-03-23T00:21:15;14.10;99.90
22364;DHT22;11349;53.412;-1.328;2023-03-23T00:23:41;14.30;99.90
22364;DHT22;11349;53.412;-1.328;2023-03-23T00:26:11;14.30;99.90
22364;DHT22;11349;53.412;-1.328;2023-03-23T00:28:37;14.40;99.90
22364;DHT22;11349;53.412;-1.328;2023-03-23T00:31:06;14.50;99.90
22364;DHT22;11349;53.412;-1.328;2023-03-23T00:33:35;14.60;99.90
22364;DHT22;11349;53.412;-1.328;2023-03-23T00:38:34;14.20;99.90
22364;DHT22;11349;53.412;-1.328;2023-03-23T00:41:01;14.00;99.90
22364;DHT22;11349;53.412;-1.328;2023-03-23T00:43:28;13.90;99.90
22364;DHT22;11349;53.412;-1.328;2023-03-23T00:45:55;13.30;99.90
22364;DHT22;11349;53.412;-1.328;2023-03-23T00:48:22;13.40;99.90
22364;DHT22;11349;53.412;-1.328;2023-03-23T00:50:49;13.10;99.90
22364;DHT22;11349;53.412;-1.328;2023-03-23T00:53:16;12.90;99.90
22364;DHT22;11349;53.412;-1.328;2023-03-23T00:55:43;13.40;99.90
22364;DHT22;11349;53.412;-1.328;2023-03-23T00:58:09;12.40;99.90
22364;DHT22;11349;53.412;-1.328;2023-03-23T01:00:35;12.40;99.90
22364;DHT22;11349;53.412;-1.328;2023-03-23T01:03:01;12.60;99.90
22364;DHT22;11349;53.412;-1.328;2023-03-23T01:05:27;13.00;99.90
22364;DHT22;11349;53.412;-1.328;2023-03-23T01:08:01;13.50;99.90
22364;DHT22;11349;53.412;-1.328;2023-03-23T01:10:27;14.00;99.90
22364;DHT22;11349;53.412;-1.328;2023-03-23T01:12:55;14.10;99.90
22364;DHT22;11349;53.412;-1.328;2023-03-23T01:15:21;14.00;99.90
22364;DHT22;11349;53.412;-1.328;2023-03-23T01:17:47;13.70;99.90
22364;DHT22;11349;53.412;-1.328;2023-03-23T01:20:14;13.90;99.90
22364;DHT22;11349;53.412;-1.328;2023-03-23T01:22:41;13.70;99.90
22364;DHT22;11349;53.412;-1.328;2023-03-23T01:25:11;13.30;99.90
22364;DHT22;11349;53.412;-1.328;2023-03-23T01:27:38;12.30;99.90
22364;DHT22;11349;53.412;-1.328;2023-03-23T01:30:06;12.30;99.90
22364;DHT22;11349;53.412;-1.328;2023-03-23T01:32:33;12.50;99.90
22364;DHT22;11349;53.412;-1.328;2023-03-23T01:34:59;12.90;99.90
22364;DHT22;11349;53.412;-1.328;2023-03-23T01:37:25;13.20;99.90
22364;DHT22;11349;53.412;-1.328;2023-03-23T01:39:55;13.40;99.90
22364;DHT22;11349;53.412;-1.328;2023-03-23T01:42:29;13.40;99.90
22364;DHT22;11349;53.412;-1.328;2023-03-23T01:47:40;13.20;99.90
22364;DHT22;11349;53.412;-1.328;2023-03-23T01:50:06;13.40;99.90
22364;DHT22;11349;53.412;-1.328;2023-03-23T01:52:33;12.70;99.90
22364;DHT22;11349;53.412;-1.328;2023-03-23T01:55:02;13.00;99.90
22364;DHT22;11349;53.412;-1.328;2023-03-23T01:57:28;12.70;99.90
22364;DHT22;11349;53.412;-1.328;2023-03-23T01:59:57;12.60;99.90
22364;DHT22;11349;53.412;-1.328;2023-03-23T02:02:26;12.50;99.90
22364;DHT22;11349;53.412;-1.328;2023-03-23T02:04:57;12.10;99.90
22364;DHT22;11349;53.412;-1.328;2023-03-23T02:07:24;13.10;99.90
22364;DHT22;11349;53.412;-1.328;2023-03-23T02:09:51;12.80;99.90
22364;DHT22;11349;53.412;-1.328;2023-03-23T02:12:17;12.40;99.90
22364;DHT22;11349;53.412;-1.328;2023-03-23T02:14:45;12.60;99.90
22364;DHT22;11349;53.412;-1.328;2023-03-23T02:17:23;12.60;99.90
22364;DHT22;11349;53.412;-1.328;2023-03-23T02:38:30;12.40;99.90
22364;DHT22;11349;53.412;-1.328;2023-03-23T02:40:59;12.20;99.90
22364;DHT22;11349;53.412;-1.328;2023-03-23T02:43:28;12.40;99.90
22364;DHT22;11349;53.412;-1.328;2023-03-23T02:45:57;12.60;99.90
22364;DHT22;11349;53.412;-1.328;2023-03-23T02:48:27;12.60;99.90
22364;DHT22;11349;53.412;-1.328;2023-03-23T02:50:54;12.30;99.90
22364;DHT22;11349;53.412;-1.328;2023-03-23T02:53:23;12.30;99.90
22364;DHT22;11349;53.412;-1.328;2023-03-23T02:55:50;12.80;99.90
22364;DHT22;11349;53.412;-1.328;2023-03-23T02:58:19;12.80;99.90
22364;DHT22;11349;53.412;-1.328;2023-03-23T03:00:45;13.00;99.90
22364;DHT22;11349;53.412;-1.328;2023-03-23T03:03:17;12.70;99.90
22364;DHT22;11349;53.412;-1.328;2023-03-23T03:06:11;12.70;99.90
22364;DHT22;11349;53.412;-1.328;2023-03-23T03:08:46;12.40;99.90
22364;DHT22;11349;53.412;-1.328;2023-03-23T03:11:16;12.30;99.90
22364;DHT22;11349;53.412;-1.328;2023-03-23T03:19:26;13.10;99.90
22364;DHT22;11349;53.412;-1.328;2023-03-23T03:21:56;12.70;99.90
22364;DHT22;11349;53.412;-1.328;2023-03-23T03:24:24;12.30;99.90
22364;DHT22;11349;53.412;-1.328;2023-03-23T03:26:53;11.30;99.90
22364;DHT22;11349;53.412;-1.328;2023-03-23T03:29:25;12.40;99.90
22364;DHT22;11349;53.412;-1.328;2023-03-23T03:31:53;12.80;99.90
22364;DHT22;11349;53.412;-1.328;2023-03-23T03:34:21;12.40;99.90
22364;DHT22;11349;53.412;-1.328;2023-03-23T03:36:49;12.40;99.90
22364;DHT22;11349;53.412;-1.328;2023-03-23T03:39:17;12.90;99.90
22364;DHT22;11349;53.412;-1.328;2023-03-23T03:41:45;12.80;99.90
22364;DHT22;11349;53.412;-1.328;2023-03-23T03:44:11;12.80;99.90
22364;DHT22;11349;53.412;-1.328;2023-03-23T03:46:37;12.90;99.90
22364;DHT22;11349;53.412;-1.328;2023-03-23T03:49:07;12.80;99.90
22364;DHT22;11349;53.412;-1.328;2023-03-23T03:51:34;13.00;99.90
22364;DHT22;11349;53.412;-1.328;2023-03-23T03:54:01;12.60;99.90
22364;DHT22;11349;53.412;-1.328;2023-03-23T03:56:26;12.20;99.90
22364;DHT22;11349;53.412;-1.328;2023-03-23T03:58:53;11.50;99.90
22364;DHT22;11349;53.412;-1.328;2023-03-23T04:01:20;12.20;99.90
22364;DHT22;11349;53.412;-1.328;2023-03-23T04:03:48;11.50;99.90
22364;DHT22;11349;53.412;-1.328;2023-03-23T04:06:14;11.10;99.90
22364;DHT22;11349;53.412;-1.328;2023-03-23T04:08:41;10.60;99.90
22364;DHT22;11349;53.412;-1.328;2023-03-23T04:11:13;11.10;99.90
22364;DHT22;11349;53.412;-1.328;2023-03-23T04:13:39;10.70;99.90
22364;DHT22;11349;53.412;-1.328;2023-03-23T04:16:05;11.50;99.90
22364;DHT22;11349;53.412;-1.328;2023-03-23T04:18:32;11.70;99.90
22364;DHT22;11349;53.412;-1.328;2023-03-23T04:21:00;11.70;99.90
22364;DHT22;11349;53.412;-1.328;2023-03-23T04:23:27;11.70;99.90
22364;DHT22;11349;53.412;-1.328;2023-03-23T04:25:56;10.50;99.90
22364;DHT22;11349;53.412;-1.328;2023-03-23T04:28:24;11.20;99.90
22364;DHT22;11349;53.412;-1.328;2023-03-23T04:30:51;10.60;99.90
22364;DHT22;11349;53.412;-1.328;2023-03-23T04:33:25;10.80;99.90
22364;DHT22;11349;53.412;-1.328;2023-03-23T04:35:58;10.60;99.90
22364;DHT22;11349;53.412;-1.328;2023-03-23T04:38:27;9.90;99.90
22364;DHT22;11349;53.412;-1.328;2023-03-23T04:40:54;10.10;99.90
22364;DHT22;11349;53.412;-1.328;2023-03-23T04:43:23;10.60;99.90
22364;DHT22;11349;53.412;-1.328;2023-03-23T04:45:56;10.70;99.90
22364;DHT22;11349;53.412;-1.328;2023-03-23T04:48:27;9.70;99.90
22364;DHT22;11349;53.412;-1.328;2023-03-23T04:50:54;10.00;99.90
22364;DHT22;11349;53.412;-1.328;2023-03-23T04:53:20;10.20;99.90
22364;DHT22;11349;53.412;-1.328;2023-03-23T04:55:47;10.20;99.90
22364;DHT22;11349;53.412;-1.328;2023-03-23T04:58:13;10.40;99.90
22364;DHT22;11349;53.412;-1.328;2023-03-23T05:00:40;11.00;99.90
22364;DHT22;11349;53.412;-1.328;2023-03-23T05:03:06;11.40;99.90
22364;DHT22;11349;53.412;-1.328;2023-03-23T05:05:34;11.20;99.90
22364;DHT22;11349;53.412;-1.328;2023-03-23T05:08:00;10.80;99.90
22364;DHT22;11349;53.412;-1.328;2023-03-23T05:10:25;11.10;99.90
22364;DHT22;11349;53.412;-1.328;2023-03-23T05:12:53;11.80;99.90
22364;DHT22;11349;53.412;-1.328;2023-03-23T05:15:19;11.80;99.90
22364;DHT22;11349;53.412;-1.328;2023-03-23T05:17:52;11.40;99.90
22364;DHT22;11349;53.412;-1.328;2023-03-23T05:20:18;11.90;99.90
22364;DHT22;11349;53.412;-1.328;2023-03-23T05:22:45;11.50;99.90
22364;DHT22;11349;53.412;-1.328;2023-03-23T05:25:15;10.80;99.90
22364;DHT22;11349;53.412;-1.328;2023-03-23T05:27:44;11.30;99.90
22364;DHT22;11349;53.412;-1.328;2023-03-23T05:30:14;10.80;99.90
22364;DHT22;11349;53.412;-1.328;2023-03-23T05:32:43;11.10;99.90
22364;DHT22;11349;53.412;-1.328;2023-03-23T05:35:11;10.70;99.90
22364;DHT22;11349;53.412;-1.328;2023-03-23T05:37:37;10.80;99.90
22364;DHT22;11349;53.412;-1.328;2023-03-23T05:40:05;11.00;99.90
22364;DHT22;11349;53.412;-1.328;2023-03-23T05:42:35;10.90;99.90
22364;DHT22;11349;53.412;-1.328;2023-03-23T05:45:04;11.00;99.90
22364;DHT22;11349;53.412;-1.328;2023-03-23T05:47:30;11.70;99.90
22364;DHT22;11349;53.412;-1.328;2023-03-23T05:49:56;11.40;99.90
22364;DHT22;11349;53.412;-1.328;2023-03-23T05:52:22;11.90;99.90
22364;DHT22;11349;53.412;-1.328;2023-03-23T05:54:50;11.60;99.90
22364;DHT22;11349;53.412;-1.328;2023-03-23T05:57:18;12.30;99.90
22364;DHT22;11349;53.412;-1.328;2023-03-23T05:59:44;12.30;99.90
22364;DHT22;11349;53.412;-1.328;2023-03-23T06:02:10;12.20;99.90
22364;DHT22;11349;53.412;-1.328;2023-03-23T06:04:36;12.40;99.90
22364;DHT22;11349;53.412;-1.328;2023-03-23T06:07:03;12.40;99.90
22364;DHT22;11349;53.412;-1.328;2023-03-23T06:09:29;12.60;99.90
22364;DHT22;11349;53.412;-1.328;2023-03-23T06:11:56;12.60;99.90
22364;DHT22;11349;53.412;-1.328;2023-03-23T06:14:22;12.60;99.90
22364;DHT22;11349;53.412;-1.328;2023-03-23T06:16:48;12.70;99.90
22364;DHT22;11349;53.412;-1.328;2023-03-23T06:19:14;12.70;99.90
22364;DHT22;11349;53.412;-1.328;2023-03-23T06:21:41;12.70;99.90
22364;DHT22;11349;53.412;-1.328;2023-03-23T06:24:08;12.30;99.90
22364;DHT22;11349;53.412;-1.328;2023-03-23T06:26:36;12.60;99.90
22364;DHT22;11349;53.412;-1.328;2023-03-23T06:29:06;12.50;99.90
22364;DHT22;11349;53.412;-1.328;2023-03-23T06:31:38;12.60;99.90
22364;DHT22;11349;53.412;-1.328;2023-03-23T06:34:10;12.80;99.90
22364;DHT22;11349;53.412;-1.328;2023-03-23T06:36:40;13.00;99.90
22364;DHT22;11349;53.412;-1.328;2023-03-23T06:39:06;13.00;99.90
22364;DHT22;11349;53.412;-1.328;2023-03-23T06:41:34;12.60;99.90
22364;DHT22;11349;53.412;-1.328;2023-03-23T06:44:01;12.70;99.90
22364;DHT22;11349;53.412;-1.328;2023-03-23T06:46:27;12.90;99.90
22364;DHT22;11349;53.412;-1.328;2023-03-23T06:48:53;13.00;99.90
22364;DHT22;11349;53.412;-1.328;2023-03-23T06:51:19;12.70;99.90
22364;DHT22;11349;53.412;-1.328;2023-03-23T06:53:46;12.80;99.90
22364;DHT22;11349;53.412;-1.328;2023-03-23T06:56:11;12.90;99.90
22364;DHT22;11349;53.412;-1.328;2023-03-23T06:58:38;13.10;99.90
22364;DHT22;11349;53.412;-1.328;2023-03-23T07:01:05;13.00;99.90
22364;DHT22;11349;53.412;-1.328;2023-03-23T07:03:33;13.10;99.90
22364;DHT22;11349;53.412;-1.328;2023-03-23T07:05:59;12.90;99.90
22364;DHT22;11349;53.412;-1.328;2023-03-23T07:08:25;12.90;99.90
22364;DHT22;11349;53.412;-1.328;2023-03-23T07:10:53;13.30;99.90
22364;DHT22;11349;53.412;-1.328;2023-03-23T07:13:19;13.20;99.90
22364;DHT22;11349;53.412;-1.328;2023-03-23T07:15:46;13.30;99.90
22364;DHT22;11349;53.412;-1.328;2023-03-23T07:18:12;13.40;99.90
22364;DHT22;11349;53.412;-1.328;2023-03-23T07:20:38;13.30;99.90
22364;DHT22;11349;53.412;-1.328;2023-03-23T07:23:04;13.40;99.90
22364;DHT22;11349;53.412;-1.328;2023-03-23T07:25:33;13.60;99.90
22364;DHT22;11349;53.412;-1.328;2023-03-23T07:28:02;13.80;99.90
22364;DHT22;11349;53.412;-1.328;2023-03-23T07:30:29;13.80;99.90
22364;DHT22;11349;53.412;-1.328;2023-03-23T07:32:56;13.90;99.90
22364;DHT22;11349;53.412;-1.328;2023-03-23T07:35:23;13.80;99.90
22364;DHT22;11349;53.412;-1.328;2023-03-23T07:37:49;13.80;99.90
22364;DHT22;11349;53.412;-1.328;2023-03-23T07:40:16;14.10;99.90
22364;DHT22;11349;53.412;-1.328;2023-03-23T07:42:54;14.10;99.90
22364;DHT22;11349;53.412;-1.328;2023-03-23T07:45:21;14.00;99.90
22364;DHT22;11349;53.412;-1.328;2023-03-23T07:47:49;14.00;99.90
22364;DHT22;11349;53.412;-1.328;2023-03-23T07:50:15;14.10;99.90
22364;DHT22;11349;53.412;-1.328;2023-03-23T07:52:41;14.20;99.90
22364;DHT22;11349;53.412;-1.328;2023-03-23T07:55:09;14.20;99.90
22364;DHT22;11349;53.412;-1.328;2023-03-23T07:57:46;14.10;99.90
22364;DHT22;11349;53.412;-1.328;2023-03-23T08:00:16;14.20;99.90
22364;DHT22;11349;53.412;-1.328;2023-03-23T08:02:55;14.20;99.90
22364;DHT22;11349;53.412;-1.328;2023-03-23T08:05:23;14.10;99.90
22364;DHT22;11349;53.412;-1.328;2023-03-23T08:07:52;14.10;99.90
22364;DHT22;11349;53.412;-1.328;2023-03-23T08:10:20;14.00;99.90
22364;DHT22;11349;53.412;-1.328;2023-03-23T08:12:51;14.00;99.90
22364;DHT22;11349;53.412;-1.328;2023-03-23T08:15:18;14.00;99.90
22364;DHT22;11349;53.412;-1.328;2023-03-23T08:17:44;14.10;99.90
22364;DHT22;11349;53.412;-1.328;2023-03-23T08:20:11;14.10;99.90
22364;DHT22;11349;53.412;-1.328;2023-03-23T08:22:43;14.10;99.90
22364;DHT22;11349;53.412;-1.328;2023-03-23T08:25:12;14.20;99.90
22364;DHT22;11349;53.412;-1.328;2023-03-23T08:27:38;14.20;99.90
22364;DHT22;11349;53.412;-1.328;2023-03-23T08:30:14;14.30;99.90
22364;DHT22;11349;53.412;-1.328;2023-03-23T08:32:40;14.20;99.90
22364;DHT22;11349;53.412;-1.328;2023-03-23T08:35:08;14.20;99.90
22364;DHT22;11349;53.412;-1.328;2023-03-23T08:37:35;14.30;99.90
22364;DHT22;11349;53.412;-1.328;2023-03-23T08:40:01;14.20;99.90
22364;DHT22;11349;53.412;-1.328;2023-03-23T08:42:33;14.40;99.90
22364;DHT22;11349;53.412;-1.328;2023-03-23T08:45:00;14.20;99.90
22364;DHT22;11349;53.412;-1.328;2023-03-23T08:47:26;14.30;99.90
22364;DHT22;11349;53.412;-1.328;2023-03-23T08:49:52;14.30;99.90
22364;DHT22;11349;53.412;-1.328;2023-03-23T08:52:19;14.40;99.90
22364;DHT22;11349;53.412;-1.328;2023-03-23T08:54:46;14.40;99.90
22364;DHT22;11349;53.412;-1.328;2023-03-23T08:57:13;14.40;99.90
22364;DHT22;11349;53.412;-1.328;2023-03-23T08:59:40;14.40;99.90
22364;DHT22;11349;53.412;-1.328;2023-03-23T09:02:09;14.40;99.90
22364;DHT22;11349;53.412;-1.328;2023-03-23T09:04:35;14.40;99.90
22364;DHT22;11349;53.412;-1.328;2023-03-23T09:07:00;14.50;99.90
22364;DHT22;11349;53.412;-1.328;2023-03-23T09:09:26;14.50;99.90
22364;DHT22;11349;53.412;-1.328;2023-03-23T09:11:53;14.40;99.90
22364;DHT22;11349;53.412;-1.328;2023-03-23T09:14:19;14.40;99.90
22364;DHT22;11349;53.412;-1.328;2023-03-23T09:16:44;14.50;99.90
22364;DHT22;11349;53.412;-1.328;2023-03-23T09:19:10;14.50;99.90
22364;DHT22;11349;53.412;-1.328;2023-03-23T09:21:38;14.60;99.90
22364;DHT22;11349;53.412;-1.328;2023-03-23T09:24:04;14.50;99.90
22364;DHT22;11349;53.412;-1.328;2023-03-23T09:26:31;14.50;99.90
22364;DHT22;11349;53.412;-1.328;2023-03-23T09:28:57;14.50;99.90
22364;DHT22;11349;53.412;-1.328;2023-03-23T09:31:24;14.60;99.90
22364;DHT22;11349;53.412;-1.328;2023-03-23T09:33:55;14.60;99.90
22364;DHT22;11349;53.412;-1.328;2023-03-23T09:36:22;14.50;99.90
22364;DHT22;11349;53.412;-1.328;2023-03-23T09:38:48;14.60;99.90
22364;DHT22;11349;53.412;-1.328;2023-03-23T09:46:35;14.60;99.90
22364;DHT22;11349;53.412;-1.328;2023-03-23T09:49:13;14.70;99.90
22364;DHT22;11349;53.412;-1.328;2023-03-23T09:54:39;14.90;99.90
22364;DHT22;11349;53.412;-1.328;2023-03-23T09:57:16;15.10;99.90
22364;DHT22;11349;53.412;-1.328;2023-03-23T09:59:56;15.10;99.90
22364;DHT22;11349;53.412;-1.328;2023-03-23T10:02:30;15.00;99.90
22364;DHT22;11349;53.412;-1.328;2023-03-23T10:07:53;15.20;99.90
22364;DHT22;11349;53.412;-1.328;2023-03-23T10:10:20;15.10;99.90
22364;DHT22;11349;53.412;-1.328;2023-03-23T10:13:05;15.10;99.90
22364;DHT22;11349;53.412;-1.328;2023-03-23T10:15:36;15.30;99.90
22364;DHT22;11349;53.412;-1.328;2023-03-23T10:18:29;15.10;99.90
22364;DHT22;11349;53.412;-1.328;2023-03-23T10:20:59;15.20;99.90
22364;DHT22;11349;53.412;-1.328;2023-03-23T10:24:00;15.30;99.90
22364;DHT22;11349;53.412;-1.328;2023-03-23T10:26:53;15.30;99.90
22364;DHT22;11349;53.412;-1.328;2023-03-23T10:29:26;15.20;99.90
22364;DHT22;11349;53.412;-1.328;2023-03-23T10:35:00;15.30;99.90
22364;DHT22;11349;53.412;-1.328;2023-03-23T10:37:31;15.30;99.90
22364;DHT22;11349;53.412;-1.328;2023-03-23T10:40:00;15.40;99.90
22364;DHT22;11349;53.412;-1.328;2023-03-23T10:42:30;15.40;99.90
22364;DHT22;11349;53.412;-1.328;2023-03-23T10:45:00;15.40;99.90
22364;DHT22;11349;53.412;-1.328;2023-03-23T10:47:27;15.40;99.90
22364;DHT22;11349;53.412;-1.328;2023-03-23T10:50:00;15.40;99.90
22364;DHT22;11349;53.412;-1.328;2023-03-23T10:52:36;15.60;99.90
22364;DHT22;11349;53.412;-1.328;2023-03-23T10:57:38;15.70;99.90
22364;DHT22;11349;53.412;-1.328;2023-03-23T11:00:29;15.70;99.90
22364;DHT22;11349;53.412;-1.328;2023-03-23T11:03:00;15.70;99.90
22364;DHT22;11349;53.412;-1.328;2023-03-23T11:05:35;15.80;99.90
22364;DHT22;11349;53.412;-1.328;2023-03-23T11:08:01;15.80;99.90
22364;DHT22;11349;53.412;-1.328;2023-03-23T11:10:37;15.80;99.90
22364;DHT22;11349;53.412;-1.328;2023-03-23T11:13:03;15.80;99.90
22364;DHT22;11349;53.412;-1.328;2023-03-23T11:15:40;15.70;99.90
22364;DHT22;11349;53.412;-1.328;2023-03-23T11:18:11;15.90;99.90
22364;DHT22;11349;53.412;-1.328;2023-03-23T11:20:40;15.70;99.90
22364;DHT22;11349;53.412;-1.328;2023-03-23T11:23:41;15.80;99.90
22364;DHT22;11349;53.412;-1.328;2023-03-23T11:26:35;15.70;99.90
22364;DHT22;11349;53.412;-1.328;2023-03-23T11:31:39;15.80;99.90
22364;DHT22;11349;53.412;-1.328;2023-03-23T11:34:13;15.80;99.90
22364;DHT22;11349;53.412;-1.328;2023-03-23T11:36:47;15.80;99.90
22364;DHT22;11349;53.412;-1.328;2023-03-23T11:41:50;15.90;99.90
22364;DHT22;11349;53.412;-1.328;2023-03-23T11:44:16;15.90;99.90
22364;DHT22;11349;53.412;-1.328;2023-03-23T11:52:12;15.90;99.90
22364;DHT22;11349;53.412;-1.328;2023-03-23T11:54:46;15.80;99.90
22364;DHT22;11349;53.412;-1.328;2023-03-23T11:57:13;15.70;99.90
22364;DHT22;11349;53.412;-1.328;2023-03-23T11:59:41;15.70;99.90
22364;DHT22;11349;53.412;-1.328;2023-03-23T12:05:40;15.90;99.90
22364;DHT22;11349;53.412;-1.328;2023-03-23T12:13:52;15.90;99.90
22364;DHT22;11349;53.412;-1.328;2023-03-23T12:27:55;16.30;99.90
22364;DHT22;11349;53.412;-1.328;2023-03-23T12:41:24;16.00;99.90
22364;DHT22;11349;53.412;-1.328;2023-03-23T12:51:40;16.00;99.90
22364;DHT22;11349;53.412;-1.328;2023-03-23T12:55:00;16.20;99.90
22364;DHT22;11349;53.412;-1.328;2023-03-23T13:00:05;16.50;99.90
22364;DHT22;11349;53.412;-1.328;2023-03-23T13:02:54;16.20;99.90
22364;DHT22;11349;53.412;-1.328;2023-03-23T13:08:18;16.30;99.90
22364;DHT22;11349;53.412;-1.328;2023-03-23T13:10:49;16.20;99.90
22364;DHT22;11349;53.412;-1.328;2023-03-23T13:13:25;16.10;99.90
22364;DHT22;11349;53.412;-1.328;2023-03-23T13:21:14;16.70;99.90
22364;DHT22;11349;53.412;-1.328;2023-03-23T13:23:44;16.70;99.90
22364;DHT22;11349;53.412;-1.328;2023-03-23T13:26:12;16.60;99.90
22364;DHT22;11349;53.412;-1.328;2023-03-23T13:29:14;16.70;99.90
22364;DHT22;11349;53.412;-1.328;2023-03-23T13:31:41;16.80;99.90
22364;DHT22;11349;53.412;-1.328;2023-03-23T13:37:20;16.80;99.90
22364;DHT22;11349;53.412;-1.328;2023-03-23T13:39:54;16.80;99.90
22364;DHT22;11349;53.412;-1.328;2023-03-23T13:52:50;16.70;99.90
22364;DHT22;11349;53.412;-1.328;2023-03-23T13:55:38;16.70;99.90
22364;DHT22;11349;53.412;-1.328;2023-03-23T14:03:31;16.80;99.90
22364;DHT22;11349;53.412;-1.328;2023-03-23T14:11:01;16.80;99.90
22364;DHT22;11349;53.412;-1.328;2023-03-23T14:16:15;16.80;99.90
22364;DHT22;11349;53.412;-1.328;2023-03-23T14:18:54;16.90;99.90
22364;DHT22;11349;53.412;-1.328;2023-03-23T14:21:44;16.90;99.90
22364;DHT22;11349;53.412;-1.328;2023-03-23T14:24:29;16.90;99.90
22364;DHT22;11349;53.412;-1.328;2023-03-23T14:27:22;16.90;99.90
22364;DHT22;11349;53.412;-1.328;2023-03-23T14:29:58;17.00;99.90
22364;DHT22;11349;53.412;-1.328;2023-03-23T14:32:27;17.00;99.90
22364;DHT22;11349;53.412;-1.328;2023-03-23T14:34:53;16.80;99.90
22364;DHT22;11349;53.412;-1.328;2023-03-23T14:37:20;17.00;99.90
22364;DHT22;11349;53.412;-1.328;2023-03-23T14:39:49;17.00;99.90
22364;DHT22;11349;53.412;-1.328;2023-03-23T14:42:19;17.00;99.90
22364;DHT22;11349;53.412;-1.328;2023-03-23T14:44:48;17.00;99.90
22364;DHT22;11349;53.412;-1.328;2023-03-23T14:47:43;17.10;99.90
22364;DHT22;11349;53.412;-1.328;2023-03-23T14:50:39;17.00;99.90
22364;DHT22;11349;53.412;-1.328;2023-03-23T14:53:30;17.10;99.90
22364;DHT22;11349;53.412;-1.328;2023-03-23T14:56:04;17.00;99.90
22364;DHT22;11349;53.412;-1.328;2023-03-23T14:58:32;17.10;99.90
22364;DHT22;11349;53.412;-1.328;2023-03-23T15:01:02;16.80;97.30
22364;DHT22;11349;53.412;-1.328;2023-03-23T15:03:35;16.90;99.90
22364;DHT22;11349;53.412;-1.328;2023-03-23T15:06:06;17.10;99.90
22364;DHT22;11349;53.412;-1.328;2023-03-23T15:08:34;17.00;99.90
22364;DHT22;11349;53.412;-1.328;2023-03-23T15:13:28;17.10;99.90
22364;DHT22;11349;53.412;-1.328;2023-03-23T15:16:18;17.20;99.90
22364;DHT22;11349;53.412;-1.328;2023-03-23T15:18:56;17.20;99.90
22364;DHT22;11349;53.412;-1.328;2023-03-23T15:21:50;17.20;99.90
22364;DHT22;11349;53.412;-1.328;2023-03-23T15:26:53;17.20;99.90
22364;DHT22;11349;53.412;-1.328;2023-03-23T15:29:21;17.20;99.90
22364;DHT22;11349;53.412;-1.328;2023-03-23T15:31:52;17.20;99.90
22364;DHT22;11349;53.412;-1.328;2023-03-23T15:34:30;17.30;99.90
22364;DHT22;11349;53.412;-1.328;2023-03-23T15:37:06;17.20;99.90
22364;DHT22;11349;53.412;-1.328;2023-03-23T15:39:32;17.20;99.90
22364;DHT22;11349;53.412;-1.328;2023-03-23T15:41:59;17.30;99.90
22364;DHT22;11349;53.412;-1.328;2023-03-23T15:44:34;17.30;99.90
22364;DHT22;11349;53.412;-1.328;2023-03-23T15:47:18;17.30;99.90
22364;DHT22;11349;53.412;-1.328;2023-03-23T15:49:45;17.40;99.90
22364;DHT22;11349;53.412;-1.328;2023-03-23T15:52:13;17.30;99.90
22364;DHT22;11349;53.412;-1.328;2023-03-23T15:54:46;17.30;99.90
22364;DHT22;11349;53.412;-1.328;2023-03-23T15:57:12;17.30;99.90
22364;DHT22;11349;53.412;-1.328;2023-03-23T15:59:38;17.40;99.90
22364;DHT22;11349;53.412;-1.328;2023-03-23T16:02:04;17.40;99.90
22364;DHT22;11349;53.412;-1.328;2023-03-23T16:04:30;17.40;99.90
22364;DHT22;11349;53.412;-1.328;2023-03-23T16:06:57;17.50;99.90
22364;DHT22;11349;53.412;-1.328;2023-03-23T16:09:23;17.30;99.90
22364;DHT22;11349;53.412;-1.328;2023-03-23T16:11:49;17.50;99.90
22364;DHT22;11349;53.412;-1.328;2023-03-23T16:14:15;17.40;99.90
22364;DHT22;11349;53.412;-1.328;2023-03-23T16:16:46;17.40;99.90
22364;DHT22;11349;53.412;-1.328;2023-03-23T16:19:13;17.40;99.90
22364;DHT22;11349;53.412;-1.328;2023-03-23T16:21:40;17.40;99.40
22364;DHT22;11349;53.412;-1.328;2023-03-23T16:24:06;17.30;99.90
22364;DHT22;11349;53.412;-1.328;2023-03-23T16:26:33;17.40;99.90
22364;DHT22;11349;53.412;-1.328;2023-03-23T16:28:59;17.40;99.90
22364;DHT22;11349;53.412;-1.328;2023-03-23T16:31:25;17.40;99.90
22364;DHT22;11349;53.412;-1.328;2023-03-23T16:33:51;17.30;99.90
22364;DHT22;11349;53.412;-1.328;2023-03-23T16:36:16;17.20;99.90
22364;DHT22;11349;53.412;-1.328;2023-03-23T16:38:42;17.20;99.90
22364;DHT22;11349;53.412;-1.328;2023-03-23T16:41:08;17.20;99.90
22364;DHT22;11349;53.412;-1.328;2023-03-23T16:43:34;17.20;99.90
22364;DHT22;11349;53.412;-1.328;2023-03-23T16:46:00;17.20;99.90
22364;DHT22;11349;53.412;-1.328;2023-03-23T16:48:26;17.20;99.90
22364;DHT22;11349;53.412;-1.328;2023-03-23T16:50:53;17.20;99.90
22364;DHT22;11349;53.412;-1.328;2023-03-23T16:53:19;17.10;99.90
22364;DHT22;11349;53.412;-1.328;2023-03-23T16:55:46;17.20;99.90
22364;DHT22;11349;53.412;-1.328;2023-03-23T16:58:15;17.10;99.90
22364;DHT22;11349;53.412;-1.328;2023-03-23T17:00:42;17.00;99.90
22364;DHT22;11349;53.412;-1.328;2023-03-23T17:03:08;17.10;99.90
22364;DHT22;11349;53.412;-1.328;2023-03-23T17:05:35;17.00;99.90
22364;DHT22;11349;53.412;-1.328;2023-03-23T17:08:01;17.10;99.90
22364;DHT22;11349;53.412;-1.328;2023-03-23T17:10:28;17.10;99.90
22364;DHT22;11349;53.412;-1.328;2023-03-23T17:12:54;17.00;99.90
22364;DHT22;11349;53.412;-1.328;2023-03-23T17:15:20;17.00;99.90
22364;DHT22;11349;53.412;-1.328;2023-03-23T17:17:46;17.00;99.90
22364;DHT22;11349;53.412;-1.328;2023-03-23T17:20:12;17.00;99.90
22364;DHT22;11349;53.412;-1.328;2023-03-23T17:22:39;17.00;99.90
22364;DHT22;11349;53.412;-1.328;2023-03-23T17:25:05;16.90;99.90
22364;DHT22;11349;53.412;-1.328;2023-03-23T17:27:33;16.90;99.90
22364;DHT22;11349;53.412;-1.328;2023-03-23T17:29:59;16.80;99.90
22364;DHT22;11349;53.412;-1.328;2023-03-23T17:32:25;16.90;99.90
22364;DHT22;11349;53.412;-1.328;2023-03-23T17:34:51;16.90;99.90
22364;DHT22;11349;53.412;-1.328;2023-03-23T17:37:19;16.90;99.90
22364;DHT22;11349;53.412;-1.328;2023-03-23T17:39:45;17.00;99.90
22364;DHT22;11349;53.412;-1.328;2023-03-23T17:42:11;16.80;99.90
22364;DHT22;11349;53.412;-1.328;2023-03-23T17:44:37;16.90;99.90
22364;DHT22;11349;53.412;-1.328;2023-03-23T17:47:02;16.80;99.90
22364;DHT22;11349;53.412;-1.328;2023-03-23T17:49:28;16.90;99.90